UAL1947 PHNL-KSFO
Flight info
| Callsign | UAL1947 |
|---|---|
| Flight time | N/A |
| Altitude | 41000 |
| Route | MKK5 KOLEA CLUTS R465 CINNY PIRAT3 |
| Aircraft | B772/H-SDE2E3FGHIJ5LORVWXY/LB1D1 |
Departure
| Time | 2026-05-06 19:05 |
|---|---|
| Airport | Daniel K. Inouye International Airport (PHNL) |
Arrival
| Time | N/A |
|---|---|
| Airport | San Francisco International Airport (KSFO) |
| Time | Latitude | Longitude | Altitude | Speed | Heading |
|---|---|---|---|---|---|
| 2026-05-06 18:20 | 21.32933 | -157.91753 | 28 ft | 0 kts | 72° |
| 2026-05-06 18:36 | 21.32932 | -157.91753 | 28 ft | 0 kts | 72° |
| 2026-05-06 18:36 | 21.32933 | -157.91753 | 28 ft | 0 kts | 72° |
| 2026-05-06 18:49 | 21.32928 | -157.91769 | 28 ft | 4 kts | 72° |
| 2026-05-06 18:49 | 21.32921 | -157.91791 | 27 ft | 4 kts | 65° |
| 2026-05-06 18:49 | 21.32907 | -157.91816 | 26 ft | 4 kts | 47° |
| 2026-05-06 18:50 | 21.32887 | -157.91834 | 27 ft | 4 kts | 28° |
| 2026-05-06 18:50 | 21.32862 | -157.91845 | 26 ft | 4 kts | 12° |
| 2026-05-06 18:50 | 21.32835 | -157.91849 | 28 ft | 4 kts | 3° |
| 2026-05-06 18:50 | 21.32809 | -157.91848 | 27 ft | 4 kts | 347° |
| 2026-05-06 18:51 | 21.32785 | -157.91838 | 27 ft | 4 kts | 318° |
| 2026-05-06 18:51 | 21.32773 | -157.91817 | 27 ft | 3 kts | 270° |
| 2026-05-06 18:51 | 21.32773 | -157.91789 | 27 ft | 3 kts | 270° |
| 2026-05-06 18:51 | 21.32773 | -157.91785 | 26 ft | 0 kts | 270° |
| 2026-05-06 18:54 | 21.32773 | -157.91800 | 28 ft | 8 kts | 271° |
| 2026-05-06 18:54 | 21.32774 | -157.91874 | 28 ft | 10 kts | 271° |
| 2026-05-06 18:54 | 21.32775 | -157.91948 | 28 ft | 10 kts | 270° |
| 2026-05-06 18:54 | 21.32774 | -157.92024 | 28 ft | 10 kts | 270° |
| 2026-05-06 18:55 | 21.32774 | -157.92099 | 28 ft | 10 kts | 270° |
| 2026-05-06 18:55 | 21.32774 | -157.92173 | 29 ft | 10 kts | 270° |
| 2026-05-06 18:55 | 21.32774 | -157.92248 | 29 ft | 10 kts | 270° |
| 2026-05-06 18:55 | 21.32774 | -157.92323 | 29 ft | 10 kts | 270° |
| 2026-05-06 18:56 | 21.32774 | -157.92398 | 29 ft | 10 kts | 270° |
| 2026-05-06 18:56 | 21.32774 | -157.92473 | 29 ft | 10 kts | 270° |
| 2026-05-06 18:56 | 21.32775 | -157.92567 | 29 ft | 16 kts | 270° |
| 2026-05-06 18:56 | 21.32773 | -157.92711 | 29 ft | 21 kts | 261° |
| 2026-05-06 18:57 | 21.32743 | -157.92859 | 29 ft | 20 kts | 270° |
| 2026-05-06 18:57 | 21.32743 | -157.93012 | 29 ft | 20 kts | 270° |
| 2026-05-06 18:57 | 21.32743 | -157.93165 | 29 ft | 20 kts | 270° |
| 2026-05-06 18:57 | 21.32743 | -157.93318 | 29 ft | 20 kts | 270° |
| 2026-05-06 18:58 | 21.32744 | -157.93471 | 29 ft | 20 kts | 269° |
| 2026-05-06 18:58 | 21.32742 | -157.93623 | 29 ft | 20 kts | 269° |
| 2026-05-06 18:58 | 21.32742 | -157.93776 | 29 ft | 20 kts | 270° |
| 2026-05-06 18:58 | 21.32742 | -157.93926 | 29 ft | 16 kts | 270° |
| 2026-05-06 18:59 | 21.32733 | -157.94035 | 29 ft | 15 kts | 248° |
| 2026-05-06 18:59 | 21.32660 | -157.94109 | 29 ft | 15 kts | 210° |
| 2026-05-06 18:59 | 21.32570 | -157.94163 | 29 ft | 15 kts | 210° |
| 2026-05-06 18:59 | 21.32481 | -157.94217 | 29 ft | 15 kts | 208° |
| 2026-05-06 19:00 | 21.32391 | -157.94270 | 28 ft | 15 kts | 209° |
| 2026-05-06 19:00 | 21.32301 | -157.94323 | 29 ft | 15 kts | 209° |
| 2026-05-06 19:00 | 21.32211 | -157.94377 | 29 ft | 15 kts | 209° |
| 2026-05-06 19:00 | 21.32152 | -157.94413 | 29 ft | 15 kts | 209° |
| 2026-05-06 19:01 | 21.32032 | -157.94484 | 29 ft | 15 kts | 208° |
| 2026-05-06 19:01 | 21.31943 | -157.94537 | 29 ft | 15 kts | 209° |
| 2026-05-06 19:01 | 21.31853 | -157.94590 | 29 ft | 15 kts | 209° |
| 2026-05-06 19:01 | 21.31763 | -157.94642 | 29 ft | 15 kts | 202° |
| 2026-05-06 19:02 | 21.31663 | -157.94660 | 29 ft | 15 kts | 177° |
| 2026-05-06 19:02 | 21.31560 | -157.94647 | 29 ft | 16 kts | 173° |
| 2026-05-06 19:02 | 21.31428 | -157.94631 | 29 ft | 23 kts | 173° |
| 2026-05-06 19:02 | 21.31255 | -157.94608 | 29 ft | 25 kts | 173° |
| 2026-05-06 19:03 | 21.31079 | -157.94586 | 29 ft | 25 kts | 173° |
| 2026-05-06 19:03 | 21.30938 | -157.94572 | 29 ft | 15 kts | 179° |
| 2026-05-06 19:03 | 21.30831 | -157.94571 | 29 ft | 15 kts | 180° |
| 2026-05-06 19:03 | 21.30724 | -157.94572 | 28 ft | 15 kts | 180° |
| 2026-05-06 19:04 | 21.30688 | -157.94565 | 28 ft | 4 kts | 143° |
| 2026-05-06 19:04 | 21.30681 | -157.94533 | 29 ft | 4 kts | 92° |
| 2026-05-06 19:04 | 21.30681 | -157.94527 | 29 ft | 0 kts | 89° |
| 2026-05-06 19:04 | 21.30682 | -157.94405 | 33 ft | 50 kts | 89° |
| 2026-05-06 19:05 | 21.30683 | -157.93736 | 30 ft | 127 kts | 90° |
| 2026-05-06 19:05 | 21.30674 | -157.92549 | 92 ft | 185 kts | 88° |
| 2026-05-06 19:05 | 21.30689 | -157.91146 | 933 ft | 190 kts | 86° |
| 2026-05-06 19:05 | 21.30727 | -157.90199 | 1504 ft | 193 kts | 88° |
| 2026-05-06 19:06 | 21.30507 | -157.88737 | 1831 ft | 209 kts | 104° |
| 2026-05-06 19:06 | 21.30120 | -157.87160 | 2156 ft | 224 kts | 103° |
| 2026-05-06 19:06 | 21.29734 | -157.85520 | 2726 ft | 228 kts | 103° |
| 2026-05-06 19:06 | 21.29336 | -157.83851 | 3286 ft | 234 kts | 104° |
| 2026-05-06 19:07 | 21.28912 | -157.82073 | 3494 ft | 258 kts | 104° |
| 2026-05-06 19:07 | 21.28454 | -157.80152 | 3948 ft | 270 kts | 104° |
| 2026-05-06 19:07 | 21.27987 | -157.78176 | 4602 ft | 276 kts | 104° |
| 2026-05-06 19:07 | 21.27514 | -157.76160 | 5267 ft | 280 kts | 104° |
| 2026-05-06 19:08 | 21.27040 | -157.74129 | 5983 ft | 283 kts | 105° |
| 2026-05-06 19:08 | 21.26563 | -157.72067 | 6670 ft | 286 kts | 105° |
| 2026-05-06 19:08 | 21.26082 | -157.69980 | 7350 ft | 289 kts | 105° |
| 2026-05-06 19:08 | 21.25599 | -157.67881 | 8060 ft | 292 kts | 105° |
| 2026-05-06 19:09 | 21.25116 | -157.65779 | 8714 ft | 296 kts | 105° |
| 2026-05-06 19:09 | 21.24621 | -157.63627 | 9384 ft | 299 kts | 105° |
| 2026-05-06 19:09 | 21.24121 | -157.61448 | 10081 ft | 302 kts | 105° |
| 2026-05-06 19:09 | 21.23606 | -157.59209 | 10412 ft | 321 kts | 105° |
| 2026-05-06 19:10 | 21.23051 | -157.56798 | 10609 ft | 346 kts | 105° |
| 2026-05-06 19:10 | 21.22462 | -157.54240 | 11131 ft | 359 kts | 105° |
| 2026-05-06 19:10 | 21.21859 | -157.51610 | 11847 ft | 367 kts | 105° |
| 2026-05-06 19:10 | 21.21245 | -157.48935 | 12717 ft | 372 kts | 105° |
| 2026-05-06 19:11 | 21.20621 | -157.46223 | 13663 ft | 376 kts | 105° |
| 2026-05-06 19:11 | 21.19991 | -157.43480 | 14455 ft | 382 kts | 105° |
| 2026-05-06 19:11 | 21.19350 | -157.40699 | 15270 ft | 387 kts | 105° |
| 2026-05-06 19:11 | 21.18700 | -157.37881 | 16089 ft | 391 kts | 105° |
| 2026-05-06 19:12 | 21.18044 | -157.35036 | 16926 ft | 395 kts | 105° |
| 2026-05-06 19:12 | 21.17387 | -157.32189 | 17701 ft | 400 kts | 104° |
| 2026-05-06 19:12 | 21.16712 | -157.29268 | 18441 ft | 406 kts | 104° |
| 2026-05-06 19:12 | 21.16031 | -157.26324 | 19106 ft | 410 kts | 104° |
| 2026-05-06 19:13 | 21.15342 | -157.23344 | 19802 ft | 413 kts | 104° |
| 2026-05-06 19:13 | 21.14679 | -157.20339 | 20402 ft | 412 kts | 99° |
| 2026-05-06 19:13 | 21.14704 | -157.17253 | 20865 ft | 420 kts | 77° |
| 2026-05-06 19:13 | 21.15703 | -157.14314 | 21532 ft | 422 kts | 60° |
| 2026-05-06 19:14 | 21.17393 | -157.11765 | 22205 ft | 419 kts | 50° |
| 2026-05-06 19:14 | 21.19262 | -157.09338 | 22810 ft | 424 kts | 49° |
| 2026-05-06 19:14 | 21.21158 | -157.06906 | 23508 ft | 428 kts | 49° |
| 2026-05-06 19:14 | 21.23074 | -157.04446 | 24135 ft | 430 kts | 49° |
| 2026-05-06 19:15 | 21.24986 | -157.01971 | 24716 ft | 434 kts | 49° |
| 2026-05-06 19:15 | 21.26886 | -156.99493 | 25267 ft | 438 kts | 49° |
| 2026-05-06 19:15 | 21.28826 | -156.96948 | 25794 ft | 442 kts | 50° |
| 2026-05-06 19:15 | 21.30774 | -156.94379 | 26329 ft | 446 kts | 50° |
| 2026-05-06 19:16 | 21.32740 | -156.91781 | 26857 ft | 449 kts | 50° |
| 2026-05-06 19:16 | 21.34711 | -156.89173 | 27357 ft | 453 kts | 50° |
| 2026-05-06 19:16 | 21.36707 | -156.86530 | 27843 ft | 457 kts | 50° |
| 2026-05-06 19:16 | 21.38720 | -156.83864 | 28313 ft | 461 kts | 50° |
| 2026-05-06 19:17 | 21.40741 | -156.81187 | 28777 ft | 464 kts | 50° |
| 2026-05-06 19:17 | 21.42777 | -156.78487 | 29273 ft | 467 kts | 50° |
| 2026-05-06 19:17 | 21.44824 | -156.75774 | 29755 ft | 469 kts | 50° |
| 2026-05-06 19:17 | 21.46886 | -156.73039 | 30184 ft | 472 kts | 50° |
| 2026-05-06 19:18 | 21.48954 | -156.70295 | 30510 ft | 475 kts | 50° |
| 2026-05-06 19:18 | 21.51042 | -156.67522 | 30816 ft | 479 kts | 50° |
| 2026-05-06 19:18 | 21.53146 | -156.64726 | 31118 ft | 483 kts | 50° |
| 2026-05-06 19:18 | 21.55265 | -156.61910 | 31402 ft | 486 kts | 50° |
| 2026-05-06 19:19 | 21.57397 | -156.59074 | 31672 ft | 489 kts | 50° |
| 2026-05-06 19:19 | 21.59542 | -156.56221 | 31959 ft | 492 kts | 49° |
| 2026-05-06 19:19 | 21.61701 | -156.53348 | 32205 ft | 496 kts | 49° |
| 2026-05-06 19:19 | 21.63874 | -156.50456 | 32436 ft | 499 kts | 49° |
| 2026-05-06 19:20 | 21.66063 | -156.47540 | 32668 ft | 502 kts | 49° |
| 2026-05-06 19:20 | 21.68230 | -156.44652 | 32952 ft | 503 kts | 50° |
| 2026-05-06 19:20 | 21.70421 | -156.41728 | 33329 ft | 502 kts | 50° |
| 2026-05-06 19:20 | 21.72613 | -156.38802 | 33706 ft | 501 kts | 50° |
| 2026-05-06 19:21 | 21.74797 | -156.35884 | 34045 ft | 501 kts | 50° |
| 2026-05-06 19:21 | 21.76982 | -156.32964 | 34336 ft | 501 kts | 49° |
| 2026-05-06 19:21 | 21.79169 | -156.30040 | 34612 ft | 502 kts | 49° |
| 2026-05-06 19:21 | 21.81356 | -156.27114 | 34904 ft | 502 kts | 49° |
| 2026-05-06 19:22 | 21.83543 | -156.24187 | 35192 ft | 502 kts | 49° |
| 2026-05-06 19:22 | 21.85736 | -156.21250 | 35375 ft | 505 kts | 49° |
| 2026-05-06 19:22 | 21.87943 | -156.18293 | 35608 ft | 506 kts | 49° |
| 2026-05-06 19:22 | 21.90145 | -156.15341 | 35909 ft | 505 kts | 49° |
| 2026-05-06 19:23 | 21.92344 | -156.12391 | 36228 ft | 505 kts | 49° |
| 2026-05-06 19:23 | 21.94529 | -156.09457 | 36686 ft | 500 kts | 49° |
| 2026-05-06 19:23 | 21.96701 | -156.06540 | 37019 ft | 499 kts | 49° |
| 2026-05-06 19:23 | 21.98875 | -156.03619 | 37226 ft | 500 kts | 49° |
| 2026-05-06 19:24 | 22.01055 | -156.00689 | 37438 ft | 502 kts | 49° |
| 2026-05-06 19:24 | 22.03237 | -155.97755 | 37704 ft | 501 kts | 49° |
| 2026-05-06 19:24 | 22.05420 | -155.94817 | 37945 ft | 501 kts | 49° |
| 2026-05-06 19:24 | 22.07571 | -155.91921 | 38194 ft | 502 kts | 49° |
| 2026-05-06 19:25 | 22.09763 | -155.88968 | 38276 ft | 505 kts | 49° |
| 2026-05-06 19:25 | 22.11970 | -155.85994 | 38474 ft | 506 kts | 49° |
| 2026-05-06 19:25 | 22.14166 | -155.83032 | 38742 ft | 505 kts | 49° |
| 2026-05-06 19:25 | 22.16356 | -155.80076 | 38979 ft | 504 kts | 49° |
| 2026-05-06 19:26 | 22.18535 | -155.77131 | 39413 ft | 497 kts | 49° |
| 2026-05-06 19:26 | 22.20658 | -155.74261 | 39768 ft | 493 kts | 49° |
| 2026-05-06 19:26 | 22.22801 | -155.71364 | 39901 ft | 495 kts | 49° |
| 2026-05-06 19:27 | 22.27116 | -155.65531 | 40138 ft | 497 kts | 49° |
| 2026-05-06 19:27 | 22.29268 | -155.62616 | 40350 ft | 496 kts | 49° |
| 2026-05-06 19:27 | 22.31419 | -155.59702 | 40535 ft | 496 kts | 49° |
| 2026-05-06 19:28 | 22.35733 | -155.53854 | 40710 ft | 498 kts | 49° |
| 2026-05-06 19:28 | 22.37890 | -155.50927 | 40916 ft | 497 kts | 49° |
| 2026-05-06 19:28 | 22.40045 | -155.48001 | 41019 ft | 498 kts | 49° |
| 2026-05-06 19:29 | 22.44328 | -155.42179 | 41081 ft | 495 kts | 49° |
| 2026-05-06 19:29 | 22.48580 | -155.36393 | 41080 ft | 490 kts | 49° |
| 2026-05-06 19:30 | 22.52820 | -155.30618 | 41086 ft | 488 kts | 49° |
| 2026-05-06 19:30 | 22.57041 | -155.24864 | 41082 ft | 488 kts | 49° |
| 2026-05-06 19:31 | 22.61266 | -155.19100 | 41096 ft | 490 kts | 49° |
| 2026-05-06 19:31 | 22.67639 | -155.10393 | 41098 ft | 494 kts | 49° |
| 2026-05-06 19:32 | 22.71914 | -155.04542 | 41093 ft | 495 kts | 49° |
| 2026-05-06 19:32 | 22.76190 | -154.98682 | 41091 ft | 496 kts | 49° |
| 2026-05-06 19:33 | 22.80447 | -154.92841 | 41082 ft | 496 kts | 49° |
| 2026-05-06 19:33 | 22.84718 | -154.86974 | 41089 ft | 496 kts | 49° |
| 2026-05-06 19:34 | 22.88986 | -154.81106 | 41088 ft | 495 kts | 49° |
| 2026-05-06 19:34 | 22.93257 | -154.75226 | 41091 ft | 495 kts | 49° |
| 2026-05-06 19:35 | 22.97486 | -154.69398 | 41087 ft | 494 kts | 49° |
| 2026-05-06 19:35 | 23.01639 | -154.63445 | 41087 ft | 495 kts | 53° |
| 2026-05-06 19:36 | 23.05446 | -154.57211 | 41091 ft | 495 kts | 54° |
| 2026-05-06 19:36 | 23.09213 | -154.50951 | 41090 ft | 494 kts | 54° |
| 2026-05-06 19:37 | 23.12992 | -154.44705 | 41087 ft | 494 kts | 53° |
| 2026-05-06 19:37 | 23.16140 | -154.39523 | 41087 ft | 494 kts | 53° |
| 2026-05-06 19:38 | 23.20543 | -154.32277 | 41087 ft | 495 kts | 53° |
| 2026-05-06 19:38 | 23.24336 | -154.26028 | 41092 ft | 496 kts | 53° |
| 2026-05-06 19:39 | 23.28136 | -154.19755 | 41092 ft | 497 kts | 53° |
| 2026-05-06 19:39 | 23.31936 | -154.13473 | 41091 ft | 497 kts | 54° |
| 2026-05-06 19:40 | 23.35738 | -154.07182 | 41104 ft | 498 kts | 53° |
| 2026-05-06 19:40 | 23.39538 | -154.00884 | 41085 ft | 498 kts | 53° |
| 2026-05-06 19:41 | 23.43337 | -153.94582 | 41096 ft | 498 kts | 53° |
| 2026-05-06 19:41 | 23.47136 | -153.88271 | 41092 ft | 498 kts | 54° |
| 2026-05-06 19:42 | 23.50932 | -153.81959 | 41095 ft | 497 kts | 54° |
| 2026-05-06 19:42 | 23.54724 | -153.75645 | 41095 ft | 497 kts | 54° |
| 2026-05-06 19:43 | 23.58510 | -153.69333 | 41114 ft | 498 kts | 53° |
| 2026-05-06 19:43 | 23.62294 | -153.63014 | 41101 ft | 498 kts | 53° |
| 2026-05-06 19:44 | 23.66053 | -153.56732 | 41094 ft | 497 kts | 54° |
| 2026-05-06 19:44 | 23.69829 | -153.50411 | 41096 ft | 497 kts | 54° |
| 2026-05-06 19:45 | 23.73606 | -153.44082 | 41098 ft | 497 kts | 54° |
| 2026-05-06 19:45 | 23.77375 | -153.37757 | 41091 ft | 497 kts | 54° |
| 2026-05-06 19:46 | 23.81157 | -153.31425 | 41106 ft | 497 kts | 53° |
| 2026-05-06 19:46 | 23.84948 | -153.25099 | 41096 ft | 498 kts | 53° |
| 2026-05-06 19:47 | 23.88736 | -153.18767 | 41092 ft | 498 kts | 54° |
| 2026-05-06 19:47 | 23.92495 | -153.12470 | 41099 ft | 498 kts | 54° |
| 2026-05-06 19:48 | 23.96279 | -153.06121 | 41100 ft | 498 kts | 54° |
| 2026-05-06 19:48 | 24.00060 | -152.99770 | 41099 ft | 498 kts | 54° |
| 2026-05-06 19:49 | 24.03847 | -152.93399 | 41094 ft | 498 kts | 54° |
| 2026-05-06 19:49 | 24.07620 | -152.87044 | 41094 ft | 498 kts | 54° |
| 2026-05-06 19:50 | 24.11364 | -152.80729 | 41088 ft | 497 kts | 54° |
| 2026-05-06 19:50 | 24.15124 | -152.74380 | 41097 ft | 497 kts | 54° |
| 2026-05-06 19:51 | 24.18887 | -152.68019 | 41095 ft | 497 kts | 54° |
| 2026-05-06 19:51 | 24.22653 | -152.61643 | 41121 ft | 498 kts | 54° |
| 2026-05-06 19:52 | 24.26413 | -152.55270 | 41097 ft | 497 kts | 54° |
| 2026-05-06 19:52 | 24.30144 | -152.48936 | 41091 ft | 497 kts | 54° |
| 2026-05-06 19:53 | 24.33891 | -152.42569 | 41097 ft | 497 kts | 54° |
| 2026-05-06 19:53 | 24.37634 | -152.36199 | 41101 ft | 497 kts | 54° |
| 2026-05-06 19:54 | 24.41375 | -152.29824 | 41101 ft | 497 kts | 54° |
| 2026-05-06 19:54 | 24.44494 | -152.24505 | 41118 ft | 497 kts | 54° |
| 2026-05-06 19:55 | 24.48232 | -152.18120 | 41097 ft | 497 kts | 54° |
| 2026-05-06 19:55 | 24.51979 | -152.11710 | 41102 ft | 497 kts | 54° |
| 2026-05-06 19:56 | 24.55711 | -152.05318 | 41103 ft | 497 kts | 54° |
| 2026-05-06 19:56 | 24.59418 | -151.98963 | 41105 ft | 497 kts | 54° |
| 2026-05-06 19:57 | 24.63144 | -151.92565 | 41104 ft | 497 kts | 54° |
| 2026-05-06 19:57 | 24.66872 | -151.86155 | 41108 ft | 497 kts | 54° |
| 2026-05-06 19:58 | 24.70595 | -151.79745 | 41103 ft | 497 kts | 54° |
| 2026-05-06 19:58 | 24.74318 | -151.73327 | 41101 ft | 497 kts | 54° |
| 2026-05-06 19:59 | 24.78033 | -151.66914 | 41101 ft | 497 kts | 54° |
| 2026-05-06 19:59 | 24.81726 | -151.60532 | 41099 ft | 497 kts | 54° |
| 2026-05-06 20:00 | 24.85438 | -151.54107 | 41113 ft | 497 kts | 54° |
| 2026-05-06 20:00 | 24.89143 | -151.47686 | 41104 ft | 497 kts | 54° |
| 2026-05-06 20:01 | 24.92845 | -151.41260 | 41098 ft | 497 kts | 54° |
| 2026-05-06 20:01 | 24.96547 | -151.34826 | 41098 ft | 497 kts | 54° |
| 2026-05-06 20:02 | 25.00243 | -151.28396 | 41106 ft | 497 kts | 55° |
| 2026-05-06 20:02 | 25.03917 | -151.21994 | 41104 ft | 497 kts | 55° |
| 2026-05-06 20:03 | 25.07607 | -151.15555 | 41104 ft | 497 kts | 55° |
| 2026-05-06 20:03 | 25.11302 | -151.09099 | 41100 ft | 497 kts | 55° |
| 2026-05-06 20:04 | 25.14995 | -151.02639 | 41105 ft | 497 kts | 55° |
| 2026-05-06 20:04 | 25.18678 | -150.96185 | 41107 ft | 497 kts | 55° |
| 2026-05-06 20:05 | 25.22368 | -150.89712 | 41101 ft | 497 kts | 55° |
| 2026-05-06 20:05 | 25.26051 | -150.83242 | 41102 ft | 498 kts | 55° |
| 2026-05-06 20:06 | 25.29732 | -150.76766 | 41103 ft | 498 kts | 55° |
| 2026-05-06 20:06 | 25.33411 | -150.70285 | 41101 ft | 498 kts | 55° |
| 2026-05-06 20:07 | 25.37088 | -150.63799 | 41099 ft | 498 kts | 55° |
| 2026-05-06 20:07 | 25.40745 | -150.57339 | 41100 ft | 498 kts | 55° |
| 2026-05-06 20:08 | 25.44419 | -150.50840 | 41103 ft | 498 kts | 55° |
| 2026-05-06 20:08 | 25.48094 | -150.44329 | 41104 ft | 498 kts | 55° |
| 2026-05-06 20:09 | 25.51766 | -150.37816 | 41100 ft | 499 kts | 55° |
| 2026-05-06 20:09 | 25.55440 | -150.31291 | 41101 ft | 499 kts | 55° |
| 2026-05-06 20:10 | 25.59112 | -150.24759 | 41103 ft | 499 kts | 55° |
| 2026-05-06 20:10 | 25.62755 | -150.18268 | 41101 ft | 499 kts | 55° |
| 2026-05-06 20:11 | 25.66420 | -150.11732 | 41106 ft | 499 kts | 55° |
| 2026-05-06 20:11 | 25.70086 | -150.05181 | 41099 ft | 499 kts | 55° |
| 2026-05-06 20:12 | 25.73742 | -149.98643 | 41101 ft | 499 kts | 55° |
| 2026-05-06 20:12 | 25.77400 | -149.92089 | 41100 ft | 499 kts | 55° |
| 2026-05-06 20:13 | 25.81051 | -149.85539 | 41098 ft | 499 kts | 55° |
| 2026-05-06 20:13 | 25.84687 | -149.79006 | 41110 ft | 499 kts | 55° |
| 2026-05-06 20:14 | 25.88337 | -149.72441 | 41102 ft | 499 kts | 55° |
| 2026-05-06 20:14 | 25.91986 | -149.65866 | 41104 ft | 499 kts | 55° |
| 2026-05-06 20:15 | 25.95605 | -149.59338 | 41101 ft | 499 kts | 55° |
| 2026-05-06 20:15 | 25.99239 | -149.52772 | 41102 ft | 499 kts | 55° |
| 2026-05-06 20:16 | 26.02878 | -149.46187 | 41120 ft | 499 kts | 55° |
| 2026-05-06 20:16 | 26.06512 | -149.39602 | 41104 ft | 499 kts | 55° |
| 2026-05-06 20:17 | 26.10144 | -149.33012 | 41105 ft | 499 kts | 55° |
| 2026-05-06 20:17 | 26.13744 | -149.26469 | 41101 ft | 499 kts | 55° |
| 2026-05-06 20:18 | 26.17367 | -149.19876 | 41109 ft | 499 kts | 55° |
| 2026-05-06 20:18 | 26.20986 | -149.13280 | 41125 ft | 499 kts | 55° |
| 2026-05-06 20:19 | 26.24600 | -149.06685 | 41114 ft | 499 kts | 56° |
| 2026-05-06 20:19 | 26.28215 | -149.00077 | 41106 ft | 499 kts | 56° |
| 2026-05-06 20:20 | 26.31826 | -148.93467 | 41112 ft | 499 kts | 56° |
| 2026-05-06 20:20 | 26.35407 | -148.86903 | 41107 ft | 499 kts | 56° |
| 2026-05-06 20:21 | 26.39007 | -148.80294 | 41121 ft | 498 kts | 56° |
| 2026-05-06 20:21 | 26.42604 | -148.73681 | 41114 ft | 499 kts | 56° |
| 2026-05-06 20:22 | 26.46203 | -148.67054 | 41116 ft | 499 kts | 56° |
| 2026-05-06 20:22 | 26.49795 | -148.60431 | 41114 ft | 499 kts | 56° |
| 2026-05-06 20:23 | 26.53387 | -148.53798 | 41111 ft | 499 kts | 56° |
| 2026-05-06 20:23 | 26.56954 | -148.47202 | 41125 ft | 499 kts | 56° |
| 2026-05-06 20:24 | 26.60542 | -148.40556 | 41115 ft | 499 kts | 56° |
| 2026-05-06 20:24 | 26.64126 | -148.33908 | 41115 ft | 500 kts | 56° |
| 2026-05-06 20:25 | 26.67709 | -148.27252 | 41120 ft | 500 kts | 56° |
| 2026-05-06 20:25 | 26.71291 | -148.20588 | 41122 ft | 500 kts | 56° |
| 2026-05-06 20:26 | 26.74869 | -148.13922 | 41135 ft | 500 kts | 56° |
| 2026-05-06 20:26 | 26.78446 | -148.07246 | 41123 ft | 500 kts | 56° |
| 2026-05-06 20:27 | 26.82027 | -148.00554 | 41122 ft | 501 kts | 56° |
| 2026-05-06 20:27 | 26.85602 | -147.93862 | 41119 ft | 501 kts | 56° |
| 2026-05-06 20:28 | 26.89179 | -147.87158 | 41120 ft | 501 kts | 56° |
| 2026-05-06 20:28 | 26.92751 | -147.80451 | 41134 ft | 501 kts | 56° |
| 2026-05-06 20:29 | 26.96317 | -147.73746 | 41117 ft | 501 kts | 56° |
| 2026-05-06 20:29 | 26.99883 | -147.67030 | 41125 ft | 501 kts | 56° |
| 2026-05-06 20:30 | 27.05202 | -147.56995 | 41136 ft | 501 kts | 56° |
| 2026-05-06 20:31 | 27.08761 | -147.50268 | 41130 ft | 501 kts | 56° |
| 2026-05-06 20:31 | 27.12315 | -147.43538 | 41126 ft | 501 kts | 56° |
| 2026-05-06 20:32 | 27.15859 | -147.36818 | 41129 ft | 501 kts | 56° |
| 2026-05-06 20:32 | 27.19406 | -147.30080 | 41138 ft | 501 kts | 56° |
| 2026-05-06 20:33 | 27.22951 | -147.23339 | 41133 ft | 501 kts | 56° |
| 2026-05-06 20:33 | 27.26469 | -147.16640 | 41147 ft | 501 kts | 56° |
| 2026-05-06 20:34 | 27.30008 | -147.09892 | 41126 ft | 501 kts | 56° |
| 2026-05-06 20:34 | 27.33543 | -147.03138 | 41149 ft | 501 kts | 56° |
| 2026-05-06 20:35 | 27.37079 | -146.96372 | 41134 ft | 501 kts | 56° |
| 2026-05-06 20:35 | 27.40608 | -146.89607 | 41134 ft | 501 kts | 56° |
| 2026-05-06 20:36 | 27.44137 | -146.82835 | 41138 ft | 501 kts | 56° |
| 2026-05-06 20:36 | 27.47661 | -146.76058 | 41136 ft | 502 kts | 56° |
| 2026-05-06 20:37 | 27.51183 | -146.69277 | 41142 ft | 501 kts | 56° |
| 2026-05-06 20:37 | 27.54701 | -146.62491 | 41137 ft | 502 kts | 56° |
| 2026-05-06 20:38 | 27.58216 | -146.55701 | 41135 ft | 502 kts | 56° |
| 2026-05-06 20:38 | 27.61711 | -146.48940 | 41152 ft | 502 kts | 56° |
| 2026-05-06 20:39 | 27.65223 | -146.42133 | 41143 ft | 502 kts | 56° |
| 2026-05-06 20:39 | 27.68733 | -146.35321 | 41145 ft | 502 kts | 56° |
| 2026-05-06 20:40 | 27.72248 | -146.28488 | 41149 ft | 502 kts | 56° |
| 2026-05-06 20:40 | 27.75756 | -146.21658 | 41148 ft | 502 kts | 56° |
| 2026-05-06 20:41 | 27.79258 | -146.14828 | 41148 ft | 503 kts | 56° |
| 2026-05-06 20:41 | 27.82170 | -146.09141 | 41149 ft | 503 kts | 56° |
| 2026-05-06 20:42 | 27.86236 | -146.01187 | 41152 ft | 503 kts | 56° |
| 2026-05-06 20:42 | 27.89736 | -145.94329 | 41149 ft | 503 kts | 56° |
| 2026-05-06 20:43 | 27.92641 | -145.88628 | 41175 ft | 503 kts | 56° |
| 2026-05-06 20:43 | 27.96137 | -145.81756 | 41158 ft | 504 kts | 56° |
| 2026-05-06 20:44 | 27.99636 | -145.74868 | 41147 ft | 504 kts | 57° |
| 2026-05-06 20:44 | 28.03109 | -145.68020 | 41154 ft | 504 kts | 57° |
| 2026-05-06 20:45 | 28.06593 | -145.61139 | 41154 ft | 504 kts | 57° |
| 2026-05-06 20:45 | 28.10074 | -145.54251 | 41164 ft | 504 kts | 56° |
| 2026-05-06 20:46 | 28.13562 | -145.47341 | 41160 ft | 504 kts | 57° |
| 2026-05-06 20:46 | 28.17021 | -145.40474 | 41161 ft | 504 kts | 57° |
| 2026-05-06 20:47 | 28.20499 | -145.33559 | 41158 ft | 504 kts | 57° |
| 2026-05-06 20:47 | 28.23971 | -145.26646 | 41173 ft | 504 kts | 57° |
| 2026-05-06 20:48 | 28.27444 | -145.19719 | 41165 ft | 505 kts | 57° |
| 2026-05-06 20:48 | 28.30913 | -145.12786 | 41170 ft | 505 kts | 57° |
| 2026-05-06 20:49 | 28.34355 | -145.05899 | 41171 ft | 505 kts | 57° |
| 2026-05-06 20:49 | 28.37819 | -144.98956 | 41166 ft | 505 kts | 57° |
| 2026-05-06 20:50 | 28.41282 | -144.92001 | 41167 ft | 505 kts | 57° |
| 2026-05-06 20:50 | 28.44737 | -144.85053 | 41169 ft | 505 kts | 57° |
| 2026-05-06 20:51 | 28.48187 | -144.78100 | 41171 ft | 505 kts | 57° |
| 2026-05-06 20:51 | 28.51634 | -144.71145 | 41165 ft | 505 kts | 57° |
| 2026-05-06 20:52 | 28.55055 | -144.64229 | 41184 ft | 504 kts | 57° |
| 2026-05-06 20:52 | 28.58491 | -144.57271 | 41172 ft | 504 kts | 57° |
| 2026-05-06 20:53 | 28.61923 | -144.50310 | 41171 ft | 504 kts | 57° |
| 2026-05-06 20:53 | 28.65349 | -144.43350 | 41181 ft | 504 kts | 58° |
| 2026-05-06 20:54 | 28.68768 | -144.36392 | 41177 ft | 503 kts | 58° |
| 2026-05-06 20:54 | 28.72184 | -144.29428 | 41181 ft | 503 kts | 58° |
| 2026-05-06 20:55 | 28.75594 | -144.22465 | 41174 ft | 502 kts | 58° |
| 2026-05-06 20:55 | 28.78994 | -144.15510 | 41186 ft | 502 kts | 58° |
| 2026-05-06 20:56 | 28.82393 | -144.08546 | 41187 ft | 502 kts | 58° |
| 2026-05-06 20:56 | 28.85763 | -144.01629 | 41190 ft | 502 kts | 58° |
| 2026-05-06 20:57 | 28.89155 | -143.94654 | 41179 ft | 502 kts | 58° |
| 2026-05-06 20:57 | 28.92544 | -143.87676 | 41187 ft | 502 kts | 58° |
| 2026-05-06 20:58 | 28.95929 | -143.80691 | 41190 ft | 502 kts | 58° |
| 2026-05-06 20:58 | 28.99291 | -143.73744 | 41201 ft | 503 kts | 58° |
| 2026-05-06 20:59 | 29.02670 | -143.66750 | 41191 ft | 503 kts | 58° |
| 2026-05-06 20:59 | 29.06046 | -143.59748 | 41189 ft | 503 kts | 58° |
| 2026-05-06 21:00 | 29.09419 | -143.52740 | 41191 ft | 503 kts | 59° |
| 2026-05-06 21:00 | 29.12793 | -143.45719 | 41210 ft | 503 kts | 59° |
| 2026-05-06 21:01 | 29.16163 | -143.38695 | 41201 ft | 504 kts | 59° |
| 2026-05-06 21:01 | 29.19509 | -143.31707 | 41198 ft | 504 kts | 59° |
| 2026-05-06 21:02 | 29.22878 | -143.24660 | 41191 ft | 504 kts | 59° |
| 2026-05-06 21:02 | 29.26238 | -143.17619 | 41197 ft | 504 kts | 59° |
| 2026-05-06 21:03 | 29.29597 | -143.10568 | 41201 ft | 504 kts | 59° |
| 2026-05-06 21:03 | 29.32957 | -143.03503 | 41203 ft | 504 kts | 59° |
| 2026-05-06 21:04 | 29.36305 | -142.96449 | 41201 ft | 503 kts | 59° |
| 2026-05-06 21:04 | 29.39629 | -142.89435 | 41203 ft | 503 kts | 59° |
| 2026-05-06 21:05 | 29.42968 | -142.82375 | 41210 ft | 503 kts | 59° |
| 2026-05-06 21:05 | 29.46301 | -142.75317 | 41199 ft | 503 kts | 59° |
| 2026-05-06 21:06 | 29.49626 | -142.68262 | 41203 ft | 502 kts | 59° |
| 2026-05-06 21:06 | 29.52944 | -142.61210 | 41211 ft | 502 kts | 59° |
| 2026-05-06 21:07 | 29.56239 | -142.54194 | 41212 ft | 502 kts | 59° |
| 2026-05-06 21:07 | 29.59551 | -142.47130 | 41205 ft | 501 kts | 59° |
| 2026-05-06 21:08 | 29.62857 | -142.40066 | 41211 ft | 501 kts | 59° |
| 2026-05-06 21:08 | 29.66155 | -142.33006 | 41208 ft | 501 kts | 59° |
| 2026-05-06 21:09 | 29.69453 | -142.25936 | 41208 ft | 501 kts | 59° |
| 2026-05-06 21:09 | 29.72746 | -142.18861 | 41211 ft | 501 kts | 59° |
| 2026-05-06 21:10 | 29.76015 | -142.11825 | 41211 ft | 501 kts | 60° |
| 2026-05-06 21:10 | 29.79299 | -142.04746 | 41215 ft | 501 kts | 60° |
| 2026-05-06 21:11 | 29.82586 | -141.97645 | 41219 ft | 502 kts | 60° |
| 2026-05-06 21:11 | 29.85872 | -141.90535 | 41220 ft | 502 kts | 60° |
| 2026-05-06 21:12 | 29.89153 | -141.83424 | 41207 ft | 502 kts | 60° |
| 2026-05-06 21:12 | 29.92427 | -141.76312 | 41204 ft | 502 kts | 60° |
| 2026-05-06 21:13 | 29.95677 | -141.69242 | 41217 ft | 503 kts | 60° |
| 2026-05-06 21:13 | 29.98948 | -141.62111 | 41230 ft | 503 kts | 60° |
| 2026-05-06 21:14 | 30.02221 | -141.54965 | 41213 ft | 503 kts | 60° |
| 2026-05-06 21:14 | 30.05487 | -141.47820 | 41214 ft | 503 kts | 60° |
| 2026-05-06 21:15 | 30.08751 | -141.40667 | 41230 ft | 504 kts | 60° |
| 2026-05-06 21:15 | 30.12011 | -141.33507 | 41232 ft | 504 kts | 60° |
| 2026-05-06 21:16 | 30.15275 | -141.26327 | 41226 ft | 504 kts | 60° |
| 2026-05-06 21:16 | 30.18528 | -141.19157 | 41226 ft | 504 kts | 60° |
| 2026-05-06 21:17 | 30.21761 | -141.12019 | 41222 ft | 504 kts | 60° |
| 2026-05-06 21:17 | 30.25010 | -141.04831 | 41220 ft | 504 kts | 60° |
| 2026-05-06 21:18 | 30.28251 | -140.97648 | 41242 ft | 504 kts | 60° |
| 2026-05-06 21:18 | 30.31492 | -140.90452 | 41237 ft | 504 kts | 60° |
| 2026-05-06 21:19 | 30.34727 | -140.83253 | 41229 ft | 504 kts | 60° |
| 2026-05-06 21:19 | 30.37955 | -140.76057 | 41229 ft | 503 kts | 60° |
| 2026-05-06 21:20 | 30.41183 | -140.68852 | 41232 ft | 503 kts | 60° |
| 2026-05-06 21:20 | 30.44380 | -140.61693 | 41241 ft | 503 kts | 60° |
| 2026-05-06 21:21 | 30.47591 | -140.54484 | 41237 ft | 503 kts | 60° |
| 2026-05-06 21:21 | 30.50805 | -140.47254 | 41239 ft | 503 kts | 60° |
| 2026-05-06 21:22 | 30.54009 | -140.40035 | 41238 ft | 503 kts | 60° |
| 2026-05-06 21:22 | 30.57211 | -140.32806 | 41254 ft | 503 kts | 60° |
| 2026-05-06 21:23 | 30.60406 | -140.25578 | 41241 ft | 503 kts | 60° |
| 2026-05-06 21:23 | 30.63583 | -140.18377 | 41246 ft | 503 kts | 60° |
| 2026-05-06 21:24 | 30.66772 | -140.11138 | 41246 ft | 503 kts | 60° |
| 2026-05-06 21:24 | 30.69951 | -140.03904 | 41258 ft | 503 kts | 61° |
| 2026-05-06 21:25 | 30.73134 | -139.96649 | 41240 ft | 503 kts | 61° |
| 2026-05-06 21:25 | 30.76288 | -139.89446 | 41251 ft | 502 kts | 61° |
| 2026-05-06 21:26 | 30.79456 | -139.82198 | 41263 ft | 502 kts | 61° |
| 2026-05-06 21:26 | 30.82613 | -139.74960 | 41256 ft | 502 kts | 61° |
| 2026-05-06 21:27 | 30.85772 | -139.67702 | 41249 ft | 502 kts | 61° |
| 2026-05-06 21:27 | 30.88926 | -139.60444 | 41260 ft | 502 kts | 61° |
| 2026-05-06 21:28 | 30.92074 | -139.53184 | 41265 ft | 502 kts | 61° |
| 2026-05-06 21:28 | 30.95215 | -139.45927 | 41263 ft | 502 kts | 61° |
| 2026-05-06 21:29 | 30.98331 | -139.38713 | 41257 ft | 501 kts | 61° |
| 2026-05-06 21:29 | 31.01465 | -139.31445 | 41263 ft | 501 kts | 61° |
| 2026-05-06 21:30 | 31.04590 | -139.24182 | 41265 ft | 501 kts | 61° |
| 2026-05-06 21:30 | 31.07713 | -139.16910 | 41263 ft | 501 kts | 61° |
| 2026-05-06 21:31 | 31.10303 | -139.10867 | 41263 ft | 501 kts | 61° |
| 2026-05-06 21:31 | 31.13921 | -139.02410 | 41279 ft | 500 kts | 62° |
| 2026-05-06 21:32 | 31.17025 | -138.95140 | 41265 ft | 500 kts | 62° |
| 2026-05-06 21:32 | 31.21151 | -138.85453 | 41262 ft | 500 kts | 62° |
| 2026-05-06 21:33 | 31.24250 | -138.78160 | 41268 ft | 500 kts | 62° |
| 2026-05-06 21:33 | 31.27344 | -138.70865 | 41272 ft | 500 kts | 62° |
| 2026-05-06 21:34 | 31.30428 | -138.63580 | 41264 ft | 500 kts | 62° |
| 2026-05-06 21:34 | 31.33509 | -138.56286 | 41272 ft | 500 kts | 62° |
| 2026-05-06 21:35 | 31.36579 | -138.49005 | 41278 ft | 500 kts | 62° |
| 2026-05-06 21:35 | 31.39632 | -138.41748 | 41270 ft | 499 kts | 62° |
| 2026-05-06 21:36 | 31.42698 | -138.34446 | 41278 ft | 499 kts | 62° |
| 2026-05-06 21:36 | 31.45761 | -138.27137 | 41273 ft | 499 kts | 62° |
| 2026-05-06 21:37 | 31.48816 | -138.19834 | 41272 ft | 499 kts | 62° |
| 2026-05-06 21:37 | 31.51844 | -138.12577 | 41278 ft | 498 kts | 62° |
| 2026-05-06 21:38 | 31.54886 | -138.05275 | 41276 ft | 498 kts | 62° |
| 2026-05-06 21:38 | 31.57925 | -137.97965 | 41281 ft | 497 kts | 62° |
| 2026-05-06 21:39 | 31.60939 | -137.90700 | 41279 ft | 497 kts | 62° |
| 2026-05-06 21:39 | 31.63960 | -137.83405 | 41283 ft | 497 kts | 62° |
| 2026-05-06 21:40 | 31.66977 | -137.76103 | 41281 ft | 496 kts | 62° |
| 2026-05-06 21:40 | 31.69985 | -137.68809 | 41280 ft | 496 kts | 62° |
| 2026-05-06 21:41 | 31.72993 | -137.61498 | 41280 ft | 496 kts | 62° |
| 2026-05-06 21:41 | 31.75987 | -137.54210 | 41283 ft | 496 kts | 62° |
| 2026-05-06 21:42 | 31.78980 | -137.46907 | 41293 ft | 495 kts | 62° |
| 2026-05-06 21:42 | 31.81949 | -137.39647 | 41283 ft | 495 kts | 62° |
| 2026-05-06 21:43 | 31.84928 | -137.32349 | 41284 ft | 495 kts | 62° |
| 2026-05-06 21:43 | 31.87901 | -137.25052 | 41291 ft | 494 kts | 63° |
| 2026-05-06 21:44 | 31.90868 | -137.17753 | 41282 ft | 494 kts | 63° |
| 2026-05-06 21:44 | 31.93832 | -137.10447 | 41290 ft | 494 kts | 63° |
| 2026-05-06 21:45 | 31.96787 | -137.03147 | 41287 ft | 494 kts | 63° |
| 2026-05-06 21:45 | 31.99740 | -136.95839 | 41288 ft | 493 kts | 63° |
| 2026-05-06 21:46 | 32.02687 | -136.88531 | 41291 ft | 493 kts | 63° |
| 2026-05-06 21:46 | 32.05628 | -136.81220 | 41291 ft | 493 kts | 63° |
| 2026-05-06 21:47 | 32.08543 | -136.73962 | 41294 ft | 493 kts | 63° |
| 2026-05-06 21:47 | 32.11472 | -136.66653 | 41290 ft | 493 kts | 63° |
| 2026-05-06 21:48 | 32.14399 | -136.59331 | 41293 ft | 493 kts | 63° |
| 2026-05-06 21:48 | 32.17319 | -136.52013 | 41304 ft | 493 kts | 63° |
| 2026-05-06 21:49 | 32.20260 | -136.44631 | 41300 ft | 500 kts | 63° |
| 2026-05-06 21:49 | 32.23233 | -136.37152 | 41297 ft | 505 kts | 63° |
| 2026-05-06 21:50 | 32.26201 | -136.29664 | 41295 ft | 506 kts | 63° |
| 2026-05-06 21:50 | 32.29183 | -136.22127 | 41291 ft | 506 kts | 63° |
| 2026-05-06 21:51 | 32.32156 | -136.14593 | 41289 ft | 504 kts | 63° |
| 2026-05-06 21:51 | 32.35112 | -136.07090 | 41292 ft | 502 kts | 63° |
| 2026-05-06 21:52 | 32.38054 | -135.99607 | 41298 ft | 501 kts | 63° |
| 2026-05-06 21:52 | 32.40985 | -135.92134 | 41296 ft | 500 kts | 63° |
| 2026-05-06 21:53 | 32.43910 | -135.84662 | 41296 ft | 499 kts | 63° |
| 2026-05-06 21:53 | 32.46825 | -135.77200 | 41298 ft | 499 kts | 63° |
| 2026-05-06 21:54 | 32.49737 | -135.69727 | 41293 ft | 499 kts | 63° |
| 2026-05-06 21:54 | 32.52623 | -135.62306 | 41296 ft | 499 kts | 63° |
| 2026-05-06 21:55 | 32.55526 | -135.54826 | 41304 ft | 499 kts | 63° |
| 2026-05-06 21:55 | 32.58421 | -135.47350 | 41299 ft | 499 kts | 63° |
| 2026-05-06 21:56 | 32.61314 | -135.39862 | 41302 ft | 499 kts | 63° |
| 2026-05-06 21:56 | 32.64201 | -135.32372 | 41314 ft | 498 kts | 63° |
| 2026-05-06 21:57 | 32.67083 | -135.24881 | 41305 ft | 498 kts | 63° |
| 2026-05-06 21:57 | 32.69951 | -135.17407 | 41306 ft | 498 kts | 63° |
| 2026-05-06 21:58 | 32.72798 | -135.09975 | 41309 ft | 497 kts | 63° |
| 2026-05-06 21:58 | 32.75656 | -135.02497 | 41303 ft | 497 kts | 63° |
| 2026-05-06 21:59 | 32.78509 | -134.95014 | 41307 ft | 496 kts | 63° |
| 2026-05-06 21:59 | 32.81352 | -134.87542 | 41302 ft | 496 kts | 63° |
| 2026-05-06 22:00 | 32.84191 | -134.80064 | 41308 ft | 495 kts | 63° |
| 2026-05-06 22:00 | 32.87024 | -134.72585 | 41310 ft | 495 kts | 63° |
| 2026-05-06 22:01 | 32.89854 | -134.65101 | 41308 ft | 496 kts | 63° |
| 2026-05-06 22:01 | 32.92661 | -134.57656 | 41312 ft | 496 kts | 63° |
| 2026-05-06 22:02 | 32.95479 | -134.50168 | 41306 ft | 496 kts | 63° |
| 2026-05-06 22:02 | 32.98297 | -134.42663 | 41307 ft | 495 kts | 63° |
| 2026-05-06 22:03 | 33.01109 | -134.35157 | 41312 ft | 495 kts | 63° |
| 2026-05-06 22:03 | 33.03891 | -134.27713 | 41306 ft | 495 kts | 63° |
| 2026-05-06 22:04 | 33.06685 | -134.20223 | 41311 ft | 494 kts | 63° |
| 2026-05-06 22:04 | 33.09476 | -134.12724 | 41307 ft | 494 kts | 63° |
| 2026-05-06 22:05 | 33.12261 | -134.05223 | 41310 ft | 494 kts | 63° |
| 2026-05-06 22:05 | 33.15037 | -133.97728 | 41316 ft | 494 kts | 63° |
| 2026-05-06 22:06 | 33.17812 | -133.90220 | 41315 ft | 494 kts | 63° |
| 2026-05-06 22:06 | 33.20579 | -133.82717 | 41321 ft | 494 kts | 63° |
| 2026-05-06 22:07 | 33.23345 | -133.75200 | 41314 ft | 494 kts | 63° |
| 2026-05-06 22:07 | 33.26088 | -133.67728 | 41315 ft | 494 kts | 63° |
| 2026-05-06 22:08 | 33.28843 | -133.60209 | 41317 ft | 494 kts | 63° |
| 2026-05-06 22:08 | 33.31600 | -133.52671 | 41314 ft | 494 kts | 63° |
| 2026-05-06 22:09 | 33.34349 | -133.45138 | 41303 ft | 494 kts | 63° |
| 2026-05-06 22:09 | 33.37073 | -133.37654 | 41305 ft | 494 kts | 63° |
| 2026-05-06 22:10 | 33.39811 | -133.30117 | 41328 ft | 493 kts | 63° |
| 2026-05-06 22:10 | 33.42545 | -133.22570 | 41330 ft | 493 kts | 64° |
| 2026-05-06 22:11 | 33.45256 | -133.15071 | 41312 ft | 493 kts | 64° |
| 2026-05-06 22:11 | 33.47980 | -133.07520 | 41316 ft | 492 kts | 64° |
| 2026-05-06 22:12 | 33.50687 | -132.99996 | 41324 ft | 491 kts | 64° |
| 2026-05-06 22:12 | 33.53390 | -132.92468 | 41315 ft | 491 kts | 64° |
| 2026-05-06 22:13 | 33.56065 | -132.85000 | 41312 ft | 490 kts | 64° |
| 2026-05-06 22:13 | 33.58752 | -132.77482 | 41315 ft | 490 kts | 64° |
| 2026-05-06 22:14 | 33.61432 | -132.69966 | 41315 ft | 490 kts | 64° |
| 2026-05-06 22:14 | 33.64106 | -132.62448 | 41318 ft | 490 kts | 64° |
| 2026-05-06 22:15 | 33.66781 | -132.54911 | 41322 ft | 490 kts | 64° |
| 2026-05-06 22:15 | 33.69447 | -132.47380 | 41312 ft | 489 kts | 64° |
| 2026-05-06 22:16 | 33.72091 | -132.39896 | 41322 ft | 489 kts | 64° |
| 2026-05-06 22:16 | 33.74742 | -132.32372 | 41315 ft | 489 kts | 65° |
| 2026-05-06 22:17 | 33.77391 | -132.24839 | 41311 ft | 489 kts | 65° |
| 2026-05-06 22:17 | 33.80031 | -132.17313 | 41317 ft | 489 kts | 65° |
| 2026-05-06 22:18 | 33.82664 | -132.09789 | 41312 ft | 489 kts | 65° |
| 2026-05-06 22:18 | 33.84853 | -132.03521 | 41312 ft | 489 kts | 65° |
| 2026-05-06 22:19 | 33.87484 | -131.95970 | 41317 ft | 489 kts | 65° |
| 2026-05-06 22:19 | 33.90113 | -131.88406 | 41310 ft | 490 kts | 65° |
| 2026-05-06 22:20 | 33.92724 | -131.80880 | 41310 ft | 490 kts | 65° |
| 2026-05-06 22:20 | 33.95345 | -131.73304 | 41317 ft | 490 kts | 66° |
| 2026-05-06 22:21 | 33.97961 | -131.65724 | 41307 ft | 491 kts | 66° |
| 2026-05-06 22:21 | 34.00579 | -131.58121 | 41307 ft | 491 kts | 66° |
| 2026-05-06 22:22 | 34.03193 | -131.50509 | 41311 ft | 491 kts | 66° |
| 2026-05-06 22:22 | 34.05808 | -131.42880 | 41309 ft | 491 kts | 66° |
| 2026-05-06 22:23 | 34.08397 | -131.35306 | 41310 ft | 492 kts | 66° |
| 2026-05-06 22:23 | 34.10999 | -131.27674 | 41306 ft | 492 kts | 67° |
| 2026-05-06 22:24 | 34.13603 | -131.20022 | 41306 ft | 493 kts | 67° |
| 2026-05-06 22:24 | 34.16200 | -131.12368 | 41309 ft | 493 kts | 67° |
| 2026-05-06 22:25 | 34.18798 | -131.04693 | 41305 ft | 493 kts | 67° |
| 2026-05-06 22:25 | 34.21393 | -130.97008 | 41303 ft | 494 kts | 67° |
| 2026-05-06 22:26 | 34.23966 | -130.89370 | 41299 ft | 494 kts | 68° |
| 2026-05-06 22:26 | 34.26552 | -130.81675 | 41298 ft | 494 kts | 68° |
| 2026-05-06 22:27 | 34.29134 | -130.73971 | 41308 ft | 494 kts | 68° |
| 2026-05-06 22:27 | 34.31720 | -130.66238 | 41300 ft | 494 kts | 68° |
| 2026-05-06 22:28 | 34.34292 | -130.58526 | 41300 ft | 494 kts | 68° |
| 2026-05-06 22:28 | 34.36859 | -130.50813 | 41299 ft | 494 kts | 68° |
| 2026-05-06 22:29 | 34.39406 | -130.43137 | 41303 ft | 494 kts | 68° |
| 2026-05-06 22:29 | 34.41961 | -130.35419 | 41300 ft | 494 kts | 68° |
| 2026-05-06 22:30 | 34.44510 | -130.27699 | 41304 ft | 494 kts | 68° |
| 2026-05-06 22:30 | 34.47056 | -130.19970 | 41301 ft | 493 kts | 68° |
| 2026-05-06 22:31 | 34.49596 | -130.12241 | 41300 ft | 493 kts | 68° |
| 2026-05-06 22:31 | 34.52125 | -130.04522 | 41298 ft | 492 kts | 68° |
| 2026-05-06 22:32 | 34.54633 | -129.96852 | 41297 ft | 492 kts | 68° |
| 2026-05-06 22:32 | 34.57148 | -129.89137 | 41298 ft | 492 kts | 68° |
| 2026-05-06 22:33 | 34.59659 | -129.81417 | 41287 ft | 491 kts | 69° |
| 2026-05-06 22:33 | 34.62166 | -129.73691 | 41292 ft | 491 kts | 69° |
| 2026-05-06 22:34 | 34.64661 | -129.65979 | 41300 ft | 491 kts | 69° |
| 2026-05-06 22:34 | 34.67152 | -129.58265 | 41293 ft | 491 kts | 69° |
| 2026-05-06 22:35 | 34.69621 | -129.50594 | 41293 ft | 491 kts | 69° |
| 2026-05-06 22:35 | 34.72101 | -129.42871 | 41289 ft | 490 kts | 69° |
| 2026-05-06 22:36 | 34.74579 | -129.35137 | 41290 ft | 490 kts | 69° |
| 2026-05-06 22:36 | 34.77051 | -129.27400 | 41288 ft | 490 kts | 69° |
| 2026-05-06 22:37 | 34.79517 | -129.19660 | 41280 ft | 490 kts | 69° |
| 2026-05-06 22:37 | 34.81960 | -129.11974 | 41285 ft | 490 kts | 69° |
| 2026-05-06 22:38 | 34.84413 | -129.04236 | 41283 ft | 490 kts | 69° |
| 2026-05-06 22:38 | 34.86866 | -128.96478 | 41291 ft | 490 kts | 69° |
| 2026-05-06 22:39 | 34.89311 | -128.88726 | 41288 ft | 490 kts | 69° |
| 2026-05-06 22:39 | 34.91735 | -128.81020 | 41280 ft | 490 kts | 69° |
| 2026-05-06 22:40 | 34.94168 | -128.73264 | 41283 ft | 489 kts | 69° |
| 2026-05-06 22:40 | 34.96595 | -128.65508 | 41283 ft | 489 kts | 69° |
| 2026-05-06 22:41 | 35.00222 | -128.53881 | 41282 ft | 489 kts | 69° |
| 2026-05-06 22:42 | 35.02636 | -128.46117 | 41274 ft | 489 kts | 69° |
| 2026-05-06 22:42 | 35.05042 | -128.38356 | 41280 ft | 489 kts | 69° |
| 2026-05-06 22:43 | 35.07443 | -128.30591 | 41269 ft | 489 kts | 69° |
| 2026-05-06 22:43 | 35.09845 | -128.22803 | 41276 ft | 489 kts | 69° |
| 2026-05-06 22:44 | 35.12239 | -128.15019 | 41270 ft | 489 kts | 69° |
| 2026-05-06 22:44 | 35.14607 | -128.07299 | 41271 ft | 489 kts | 69° |
| 2026-05-06 22:45 | 35.16991 | -127.99508 | 41267 ft | 488 kts | 69° |
| 2026-05-06 22:45 | 35.19364 | -127.91733 | 41269 ft | 488 kts | 69° |
| 2026-05-06 22:46 | 35.21731 | -127.83954 | 41260 ft | 487 kts | 69° |
| 2026-05-06 22:46 | 35.24091 | -127.76178 | 41270 ft | 487 kts | 69° |
| 2026-05-06 22:47 | 35.26428 | -127.68458 | 41267 ft | 487 kts | 69° |
| 2026-05-06 22:47 | 35.28775 | -127.60682 | 41266 ft | 487 kts | 69° |
| 2026-05-06 22:48 | 35.31113 | -127.52917 | 41268 ft | 486 kts | 69° |
| 2026-05-06 22:48 | 35.33450 | -127.45132 | 41263 ft | 485 kts | 69° |
| 2026-05-06 22:49 | 35.35761 | -127.37417 | 41265 ft | 485 kts | 69° |
| 2026-05-06 22:49 | 35.38075 | -127.29666 | 41263 ft | 484 kts | 69° |
| 2026-05-06 22:50 | 35.40385 | -127.21909 | 41263 ft | 484 kts | 69° |
| 2026-05-06 22:50 | 35.42686 | -127.14162 | 41252 ft | 483 kts | 69° |
| 2026-05-06 22:51 | 35.44986 | -127.06400 | 41245 ft | 483 kts | 69° |
| 2026-05-06 22:51 | 35.47274 | -126.98653 | 41261 ft | 483 kts | 69° |
| 2026-05-06 22:52 | 35.49542 | -126.90953 | 41242 ft | 483 kts | 69° |
| 2026-05-06 22:52 | 35.51822 | -126.83196 | 41251 ft | 482 kts | 70° |
| 2026-05-06 22:53 | 35.54092 | -126.75445 | 41245 ft | 482 kts | 70° |
| 2026-05-06 22:53 | 35.56360 | -126.67684 | 41246 ft | 482 kts | 70° |
| 2026-05-06 22:54 | 35.58622 | -126.59920 | 41241 ft | 481 kts | 70° |
| 2026-05-06 22:54 | 35.60858 | -126.52225 | 41238 ft | 481 kts | 70° |
| 2026-05-06 22:55 | 35.63103 | -126.44475 | 41242 ft | 481 kts | 70° |
| 2026-05-06 22:55 | 35.65341 | -126.36730 | 41254 ft | 480 kts | 70° |
| 2026-05-06 22:56 | 35.67573 | -126.28986 | 41244 ft | 480 kts | 70° |
| 2026-05-06 22:56 | 35.69795 | -126.21250 | 41238 ft | 479 kts | 70° |
| 2026-05-06 22:57 | 35.72011 | -126.13518 | 41237 ft | 479 kts | 70° |
| 2026-05-06 22:57 | 35.74347 | -126.05848 | 41239 ft | 478 kts | 67° |
| 2026-05-06 22:58 | 35.76947 | -125.98311 | 41241 ft | 478 kts | 66° |
| 2026-05-06 22:58 | 35.79574 | -125.90784 | 41235 ft | 478 kts | 66° |
| 2026-05-06 22:59 | 35.82177 | -125.83229 | 41234 ft | 479 kts | 66° |
| 2026-05-06 22:59 | 35.84743 | -125.75714 | 41234 ft | 479 kts | 66° |
| 2026-05-06 23:00 | 35.87317 | -125.68146 | 41227 ft | 479 kts | 66° |
| 2026-05-06 23:00 | 35.89889 | -125.60566 | 41246 ft | 478 kts | 66° |
| 2026-05-06 23:01 | 35.92449 | -125.53008 | 41233 ft | 477 kts | 66° |
| 2026-05-06 23:01 | 35.95004 | -125.45446 | 41233 ft | 477 kts | 66° |
| 2026-05-06 23:02 | 35.97548 | -125.37898 | 41229 ft | 476 kts | 66° |
| 2026-05-06 23:02 | 36.00068 | -125.30401 | 41226 ft | 475 kts | 66° |
| 2026-05-06 23:03 | 36.02600 | -125.22849 | 41232 ft | 475 kts | 66° |
| 2026-05-06 23:03 | 36.05122 | -125.15310 | 41223 ft | 475 kts | 66° |
| 2026-05-06 23:04 | 36.07641 | -125.07760 | 41223 ft | 474 kts | 66° |
| 2026-05-06 23:04 | 36.10148 | -125.00227 | 41225 ft | 474 kts | 66° |
| 2026-05-06 23:05 | 36.12650 | -124.92690 | 41224 ft | 474 kts | 66° |
| 2026-05-06 23:05 | 36.15150 | -124.85141 | 41221 ft | 474 kts | 66° |
| 2026-05-06 23:06 | 36.17753 | -124.77720 | 41222 ft | 472 kts | 61° |
| 2026-05-06 23:06 | 36.21299 | -124.70889 | 41218 ft | 471 kts | 51° |
| 2026-05-06 23:07 | 36.25379 | -124.64531 | 41224 ft | 471 kts | 50° |
| 2026-05-06 23:07 | 36.29477 | -124.58176 | 41212 ft | 471 kts | 51° |
| 2026-05-06 23:08 | 36.32860 | -124.52873 | 41217 ft | 471 kts | 51° |
| 2026-05-06 23:08 | 36.37565 | -124.45442 | 40766 ft | 473 kts | 51° |
| 2026-05-06 23:08 | 36.39602 | -124.42215 | 40117 ft | 473 kts | 51° |
| 2026-05-06 23:09 | 36.40969 | -124.40046 | 39658 ft | 472 kts | 51° |
| 2026-05-06 23:09 | 36.42968 | -124.36874 | 38994 ft | 471 kts | 51° |
| 2026-05-06 23:09 | 36.44986 | -124.33669 | 38197 ft | 471 kts | 51° |
| 2026-05-06 23:09 | 36.47001 | -124.30466 | 37414 ft | 470 kts | 51° |
| 2026-05-06 23:10 | 36.49016 | -124.27261 | 36657 ft | 469 kts | 51° |
| 2026-05-06 23:10 | 36.51024 | -124.24065 | 35886 ft | 469 kts | 51° |
| 2026-05-06 23:10 | 36.53035 | -124.20861 | 35030 ft | 471 kts | 51° |
| 2026-05-06 23:10 | 36.55059 | -124.17634 | 34240 ft | 472 kts | 51° |
| 2026-05-06 23:11 | 36.57068 | -124.14426 | 33565 ft | 468 kts | 51° |
| 2026-05-06 23:11 | 36.59059 | -124.11243 | 32923 ft | 464 kts | 51° |
| 2026-05-06 23:11 | 36.61036 | -124.08080 | 32319 ft | 460 kts | 51° |
| 2026-05-06 23:11 | 36.62991 | -124.04949 | 31758 ft | 456 kts | 51° |
| 2026-05-06 23:12 | 36.64933 | -124.01836 | 31180 ft | 453 kts | 51° |
| 2026-05-06 23:12 | 36.66833 | -123.98788 | 30618 ft | 449 kts | 51° |